Sligo Airport - TAF
(Terminal Area Forecast)

Issued at 03:06 UTC on Sun. 25-Feb-18

--- METARS(SA) ---

METAR EISG(SLIGO) 250300Z AUTO 10008KT 9000 NSC 00/M02 Q1023 =

--- TAFS() ---

TAF EISG(SLIGO) 250200Z 2503/2512 12007KT 9000 SCT030 PROB30 TEMPO

2503/2509 5000 BR =

--- SIGMETS(WS) ---

IE - No VALID SIGMETS/Warnings FOR THIS AREA

--- SIGMETS Volcanic(WV) ---

IE - No VALID SIGMETS/Warnings FOR THIS AREA

--- SIGMETS(WS) ---

UK - No VALID SIGMETS/Warnings FOR THIS AREA

Sligo Airport - METARs

Latest METARs for Sligo and Donegal Airports - updated every 30 mins